createdAt,value
2022-09-04T06:21:33.790Z,6.65
2022-09-04T06:24:31.911Z,5.97
2022-09-04T06:27:29.743Z,4.13
2022-09-04T06:30:06.458Z,4.80
2022-09-04T06:33:12.295Z,4.32
2022-09-04T06:36:26.480Z,3.72
2022-09-04T06:39:08.304Z,5.68
2022-09-04T06:42:21.558Z,6.45
2022-09-04T06:45:16.581Z,3.17
2022-09-04T06:48:22.411Z,5.57
2022-09-04T06:51:08.718Z,5.07
2022-09-04T06:54:00.239Z,6.82
2022-09-04T06:56:41.956Z,5.53
2022-09-04T06:59:33.837Z,4.55
2022-09-04T07:02:26.164Z,5.18
2022-09-04T07:05:20.394Z,4.68
2022-09-04T07:08:22.995Z,6.70
2022-09-04T07:11:37.122Z,5.38
2022-09-04T07:15:01.488Z,7.07
2022-09-04T07:17:47.490Z,5.30
2022-09-04T07:21:11.057Z,8.80
2022-09-04T07:24:01.139Z,6.72
2022-09-04T07:26:58.767Z,8.30
2022-09-04T08:59:52.222Z,12.43
2022-09-04T09:02:52.351Z,6.53
2022-09-04T09:06:24.409Z,8.38
2022-09-04T09:09:06.581Z,7.82
2022-09-04T09:12:10.685Z,6.80
2022-09-04T09:15:15.173Z,7.40
2022-09-04T09:18:02.003Z,6.78
2022-09-04T09:20:45.093Z,5.88
2022-09-04T09:23:52.458Z,9.35
2022-09-04T09:26:38.742Z,8.40
2022-09-04T09:29:36.385Z,12.27
2022-09-04T09:33:01.716Z,12.00
2022-09-04T09:35:38.521Z,13.10
2022-09-04T09:38:20.270Z,13.07
2022-09-04T09:41:30.729Z,12.65
2022-09-04T09:44:22.881Z,13.57
2022-09-04T09:47:21.598Z,14.00
2022-09-04T09:50:28.668Z,13.00
2022-09-04T09:53:37.989Z,15.27
2022-09-04T09:57:11.396Z,14.57
2022-09-04T10:00:05.772Z,19.25
2022-09-04T10:02:54.006Z,14.20
2022-09-04T10:05:56.463Z,11.25
2022-09-04T10:09:09.687Z,14.32
2022-09-04T10:11:51.800Z,10.00
2022-09-04T10:15:10.306Z,12.73
2022-09-04T10:18:33.227Z,7.75
2022-09-04T10:21:52.980Z,10.30
2022-09-04T10:24:44.479Z,8.25
2022-09-04T10:28:01.870Z,10.38
2022-09-04T10:31:07.530Z,7.93
2022-09-04T10:37:04.664Z,9.82
2022-09-04T10:40:18.239Z,7.03
2022-09-04T10:43:15.780Z,7.20
2022-09-04T10:45:51.661Z,5.22
2022-09-04T10:48:59.879Z,5.70
2022-09-04T10:52:32.271Z,5.10
2022-09-04T10:55:36.308Z,4.13
2022-09-04T10:58:41.479Z,5.40
2022-09-04T11:02:01.345Z,6.10
2022-09-04T11:05:07.263Z,6.55
2022-09-04T11:07:46.119Z,5.55
2022-09-04T11:10:56.213Z,4.60
2022-09-04T11:13:56.347Z,5.05
2022-09-04T11:17:03.827Z,3.10
2022-09-04T11:20:26.730Z,3.50
2022-09-04T11:23:30.900Z,4.35
2022-09-04T11:26:39.122Z,6.82
2022-09-04T11:29:25.316Z,5.28
2022-09-04T11:32:27.609Z,3.65
2022-09-04T11:35:29.632Z,4.35
2022-09-04T11:38:05.532Z,3.35
2022-09-04T11:41:11.673Z,6.60
2022-09-04T11:44:08.105Z,2.75
2022-09-04T11:46:59.853Z,4.10
2022-09-04T11:50:06.227Z,3.75
2022-09-04T11:53:15.101Z,2.33
2022-09-04T11:56:10.997Z,3.65
2022-09-04T11:59:01.199Z,3.38
2022-09-04T12:01:30.704Z,2.45
2022-09-04T12:04:32.637Z,4.80
2022-09-04T12:07:42.653Z,4.35
2022-09-04T12:10:34.133Z,4.45
2022-09-04T12:13:14.984Z,6.20
2022-09-04T12:16:27.079Z,7.35
2022-09-04T13:45:11.507Z,2.25
2022-09-04T13:47:57.939Z,3.50
2022-09-04T13:50:36.598Z,1.85
2022-09-04T13:54:11.312Z,2.42
2022-09-04T13:57:05.643Z,1.65
2022-09-04T13:59:33.075Z,2.50
2022-09-04T14:02:08.443Z,2.10
2022-09-04T14:04:43.965Z,1.35
2022-09-04T14:07:20.511Z,3.72
2022-09-04T14:09:53.151Z,3.00
2022-09-04T14:12:53.899Z,1.65
2022-09-04T14:15:39.698Z,1.13
2022-09-04T14:18:21.897Z,1.05
2022-09-04T14:21:06.140Z,2.20
2022-09-04T14:24:09.318Z,4.53
2022-09-04T14:27:19.159Z,2.38
2022-09-04T14:30:17.816Z,3.58
2022-09-04T14:33:19.338Z,4.80
2022-09-04T14:36:21.638Z,2.72
2022-09-04T14:39:24.898Z,3.10
2022-09-04T14:42:42.173Z,2.58
2022-09-04T14:45:46.810Z,3.85
2022-09-04T14:48:17.612Z,2.10
2022-09-04T14:50:53.593Z,2.00
2022-09-04T14:53:34.744Z,1.98
2022-09-04T14:56:33.444Z,2.33
2022-09-04T14:59:28.706Z,3.65
2022-09-04T15:02:14.199Z,2.20
2022-09-04T15:05:07.309Z,1.80
2022-09-04T15:07:42.964Z,1.30
2022-09-04T15:10:37.007Z,2.83
2022-09-04T15:13:50.942Z,7.00
2022-09-04T15:16:32.475Z,1.70
2022-09-04T15:19:30.909Z,1.10
2022-09-04T15:22:21.730Z,1.60
2022-09-04T15:25:03.554Z,1.15
2022-09-04T15:27:54.753Z,3.25
2022-09-04T15:30:35.456Z,2.97
2022-09-04T15:33:11.224Z,3.47
2022-09-04T15:35:40.638Z,3.97
2022-09-04T15:38:25.930Z,3.05
2022-09-04T15:41:15.786Z,1.55
2022-09-04T15:43:55.468Z,2.65
2022-09-04T15:46:43.725Z,1.40
2022-09-04T15:49:38.002Z,2.45
2022-09-04T15:52:38.832Z,4.25
2022-09-04T15:55:24.476Z,1.60
2022-09-04T15:58:05.276Z,4.65
2022-09-04T16:00:40.336Z,3.05
2022-09-04T16:03:27.421Z,2.95
2022-09-04T16:06:03.480Z,1.48
2022-09-04T16:09:06.105Z,3.60
2022-09-04T16:11:46.763Z,2.03
2022-09-04T16:14:44.598Z,1.58
2022-09-04T16:19:58.070Z,1.65
2022-09-04T16:22:56.866Z,5.07
2022-09-04T16:25:32.544Z,4.53
2022-09-04T16:28:25.554Z,2.17
2022-09-04T16:31:11.331Z,1.77
2022-09-04T16:33:44.213Z,2.90
2022-09-04T16:36:51.366Z,1.73
2022-09-04T16:39:32.655Z,4.05
2022-09-04T16:42:23.503Z,2.65
2022-09-04T16:45:06.694Z,6.28
2022-09-04T16:48:34.308Z,1.73
2022-09-04T16:51:09.825Z,4.93
2022-09-04T16:54:41.231Z,4.18
2022-09-04T16:57:21.414Z,2.13
2022-09-04T16:59:55.629Z,2.15
2022-09-04T17:02:36.403Z,1.50
2022-09-04T17:05:35.699Z,2.40
2022-09-04T17:08:38.095Z,2.35
2022-09-04T17:11:22.649Z,4.90
2022-09-04T17:13:58.660Z,2.75
2022-09-04T17:17:04.000Z,2.22
2022-09-04T17:19:39.869Z,4.90
2022-09-04T17:28:57.770Z,2.25
2022-09-04T17:29:00.065Z,2.95
2022-09-04T17:29:41.702Z,2.35
2022-09-04T17:37:13.319Z,4.25
2022-09-04T17:40:49.400Z,3.47
2022-09-04T17:40:54.950Z,2.15
2022-09-04T17:42:22.566Z,8.27
2022-09-04T17:45:21.993Z,2.80
2022-09-04T17:48:21.202Z,2.88
2022-09-04T17:50:57.823Z,3.92
2022-09-04T17:53:34.063Z,1.90
2022-09-04T17:56:48.875Z,6.20
2022-09-04T17:59:31.262Z,4.53
2022-09-04T18:02:40.934Z,10.63
